Fort Mchenry — WD19336 — position and weather

sailwx.info

Track history (hours):
 
Tides and Currents Weather Stations Pressure Air Temp Water Temp Dewpoint Dewpoint Depression Visibility Wind Speed Wind Dir Waves Ship Positions

Fort Mchenry

Last reported at 2018-Jan-21 02:06 UTC. Time now 2018-Jan-21 04:58 UTC.
Position N 40°58' W 073°54'.

Length 28 m; draft 4 m.

Type: Towing. MMSI: 369131000.

Date/timePositionNaut miles runAvg speedWind from/ knotsBaromVisibWave heightAir tempDewpointWater temp
2018-Jan-21 02:06N 40°58' W 073°54'1 7.0
2018-Jan-21 01:57N 40°57' W 073°54'3 6.8
2018-Jan-21 01:30N 40°54' W 073°55'3 6.6
2018-Jan-21 01:00N 40°51' W 073°57'3 6.3
2018-Jan-21 00:30N 40°48' W 073°59'3 5.7
2018-Jan-21 00:00N 40°45' W 074°01'3 5.6
2018-Jan-20 23:30N 40°43' W 074°01'3 5.3
2018-Jan-20 23:00N 40°40' W 074°03'3 5.1
2018-Jan-20 22:30N 40°39' W 074°06'3 4.9
2018-Jan-20 22:00N 40°39' W 074°09'3 6.7
2018-Jan-20 21:30N 40°42' W 074°07'0 0.5
2018-Jan-20 20:58N 40°42' W 074°07'2 4.6
2018-Jan-20 20:30N 40°40' W 074°08'2 3.7
2018-Jan-20 20:00N 40°39' W 074°08'1 2.5
2018-Jan-20 19:30N 40°39' W 074°06'2 4.9
2018-Jan-20 19:00N 40°40' W 074°03'1 1.2
2018-Jan-20 18:30N 40°40' W 074°03'4 8.8
2018-Jan-20 18:00N 40°39' W 074°08'3 6.9
2018-Jan-20 17:30N 40°37' W 074°12'4 7.1
2018-Jan-20 17:00N 40°33' W 074°13'2 2.7
2018-Jan-20 16:22N 40°32' W 074°15'4 7.6
2018-Jan-20 15:49N 40°36' W 074°12'3 8.7
2018-Jan-20 15:29N 40°39' W 074°11'4 9.3
2018-Jan-20 15:00N 40°39' W 074°05'4 8.8
2018-Jan-20 14:30N 40°41' W 074°00'1 2.9
2018-Jan-20 14:00N 40°40' W 074°01'0 0.3
2018-Jan-20 13:30N 40°40' W 074°00'0 0.0
2018-Jan-20 13:00N 40°40' W 074°00'0 0.0
2018-Jan-20 12:30N 40°40' W 074°00'0 0.0
2018-Jan-20 12:00N 40°40' W 074°00'0 0.0
2018-Jan-20 11:30N 40°40' W 074°00'0 0.9
2018-Jan-20 10:59N 40°40' W 074°01'0 0.1
2018-Jan-20 10:29N 40°40' W 074°01'0 0.0
2018-Jan-20 09:59N 40°40' W 074°01'1 1.4
2018-Jan-20 09:30N 40°39' W 074°02'4 7.3
2018-Jan-20 09:00N 40°39' W 074°06'2 3.5
2018-Jan-20 08:29N 40°40' W 074°09'1 1.9
2018-Jan-20 08:00N 40°41' W 074°08'2 3.4
2018-Jan-20 07:28N 40°42' W 074°07'0 0.6
2018-Jan-20 06:58N 40°42' W 074°07'1 1.6
2018-Jan-20 06:30N 40°42' W 074°07'1 1.6
2018-Jan-20 06:00N 40°42' W 074°08'0 0.0
2018-Jan-20 05:30N 40°42' W 074°08'0 0.0
2018-Jan-20 05:00N 40°42' W 074°08'0 0.0
2018-Jan-20 04:30N 40°42' W 074°08'0 0.0
2018-Jan-20 04:00N 40°42' W 074°08'2 3.5
2018-Jan-20 03:30N 40°40' W 074°08'2 3.0
2018-Jan-20 02:59N 40°39' W 074°07'0 0.5
2018-Jan-20 02:31N 40°39' W 074°06'0 0.8
2018-Jan-20 01:59N 40°39' W 074°07'2 3.1
2018-Jan-20 01:30N 40°39' W 074°05'4 6.7
2018-Jan-20 00:56N 40°40' W 074°00'1 2.1
2018-Jan-20 00:30N 40°40' W 074°01'1 2.0
2018-Jan-20 00:00N 40°41' W 074°01'3 6.8
2018-Jan-19 23:30N 40°40' W 074°05'0 0.6
2018-Jan-19 22:59N 40°40' W 074°05'0 0.7
2018-Jan-19 22:30N 40°40' W 074°05'3 3.8
2018-Jan-19 21:50N 40°38' W 074°07'0 0.0
2018-Jan-19 21:29N 40°38' W 074°07'0 0.0
2018-Jan-19 20:56N 40°38' W 074°07'0 0.0
2018-Jan-19 20:29N 40°38' W 074°07'1 2.4
2018-Jan-19 20:00N 40°39' W 074°09'3 5.9
2018-Jan-19 19:30N 40°37' W 074°12'1 1.1
2018-Jan-19 18:28N 40°36' W 074°12'2 5.3
2018-Jan-19 18:00N 40°38' W 074°11'3 6.2
2018-Jan-19 17:29N 40°41' W 074°08'2 3.2
2018-Jan-19 16:53N 40°42' W 074°07'1 1.7
2018-Jan-19 16:28N 40°42' W 074°07'2 4.3
2018-Jan-19 16:00N 40°40' W 074°08'3 5.7
2018-Jan-19 15:30N 40°39' W 074°05'3 7.0
2018-Jan-19 15:00N 40°40' W 074°00'1 2.4
2018-Jan-19 14:30N 40°39' W 074°02'3 6.1
2018-Jan-19 14:00N 40°39' W 074°06'3 5.8
2018-Jan-19 13:30N 40°39' W 074°09'3 5.6
2018-Jan-19 13:00N 40°37' W 074°12'3 6.2
2018-Jan-19 12:27N 40°33' W 074°13'2 0.8
2018-Jan-19 10:28N 40°33' W 074°15'4 6.3
2018-Jan-19 09:54N 40°35' W 074°12'3 7.7
2018-Jan-19 09:30N 40°38' W 074°12'4 7.6
2018-Jan-19 09:00N 40°39' W 074°07'0 0.1
2018-Jan-19 08:30N 40°39' W 074°06'2 4.3
2018-Jan-19 08:01N 40°39' W 074°04'1 2.9
2018-Jan-19 07:30N 40°40' W 074°03'0 0.0
2018-Jan-19 07:00N 40°40' W 074°03'1 2.6
2018-Jan-19 06:30N 40°40' W 074°04'2 3.2
2018-Jan-19 05:58N 40°39' W 074°06'1 1.7
2018-Jan-19 05:30N 40°39' W 074°07'0 0.0
2018-Jan-19 05:00N 40°39' W 074°07'0 0.0
2018-Jan-19 04:30N 40°39' W 074°07'0 0.0
2018-Jan-19 03:54N 40°39' W 074°07'0 0.0
2018-Jan-19 03:30N 40°39' W 074°07'1 1.6
2018-Jan-19 03:00N 40°39' W 074°06'0 0.4
2018-Jan-19 02:28N 40°39' W 074°06'1 1.4
2018-Jan-19 02:00N 40°39' W 074°07'2 4.5
2018-Jan-19 01:28N 40°41' W 074°09'0 0.0
2018-Jan-19 00:58N 40°41' W 074°09'2 3.9
2018-Jan-19 00:31N 40°39' W 074°09'1 2.7
2018-Jan-19 00:00N 40°39' W 074°07'0 0.7
2018-Jan-18 23:23N 40°39' W 074°07'0 0.0
2018-Jan-18 22:59N 40°39' W 074°07'0 0.0
2018-Jan-18 22:29N 40°39' W 074°07'0 0.0
2018-Jan-18 21:59N 40°39' W 074°07'1 1.5
2018-Jan-18 21:29N 40°39' W 074°06'3 5.9
2018-Jan-18 21:00N 40°39' W 074°03'2 4.6
2018-Jan-18 20:30N 40°40' W 074°00'0 0.0
2018-Jan-18 20:00N 40°40' W 074°00'0 0.0
2018-Jan-18 19:30N 40°40' W 074°00'0 0.0
2018-Jan-18 19:00N 40°40' W 074°00'1 1.4
2018-Jan-18 18:31N 40°40' W 074°01'5 9.1
2018-Jan-18 18:01N 40°39' W 074°07'4 7.9
2018-Jan-18 17:30N 40°38' W 074°12'4 7.3
2018-Jan-18 17:00N 40°34' W 074°13'2 3.2
2018-Jan-18 16:30N 40°33' W 074°14'2 3.0
2018-Jan-18 15:49N 40°35' W 074°12'0 0.5
2018-Jan-18 15:30N 40°35' W 074°13'4 7.1
2018-Jan-18 15:00N 40°39' W 074°11'4 8.7
2018-Jan-18 14:30N 40°39' W 074°06'1 1.3
2018-Jan-18 14:00N 40°39' W 074°07'1 1.1
2018-Jan-18 13:26N 40°39' W 074°07'1 1.4
2018-Jan-18 13:00N 40°39' W 074°07'4 7.9
2018-Jan-18 12:30N 40°39' W 074°02'1 1.8
2018-Jan-18 11:59N 40°40' W 074°00'0 0.0
2018-Jan-18 11:29N 40°40' W 074°00'0 0.0
2018-Jan-18 10:59N 40°40' W 074°00'0 0.0
2018-Jan-18 10:29N 40°40' W 074°00'0 0.0
2018-Jan-18 09:59N 40°40' W 074°00'0 0.0
2018-Jan-18 09:29N 40°40' W 074°00'0 0.0
2018-Jan-18 08:59N 40°40' W 074°00'0 0.0
2018-Jan-18 08:29N 40°40' W 074°00'0 0.0
2018-Jan-18 07:59N 40°40' W 074°00'0 1.0
2018-Jan-18 07:31N 40°40' W 074°01'2 4.7
2018-Jan-18 07:00N 40°40' W 074°04'1 1.4
2018-Jan-18 06:27N 40°40' W 074°05'0 0.0
2018-Jan-18 06:00N 40°40' W 074°05'1 2.3
2018-Jan-18 05:31N 40°39' W 074°04'1 2.2
2018-Jan-18 05:01N 40°39' W 074°06'1 1.6
2018-Jan-18 04:14N 40°38' W 074°07'0 0.0
2018-Jan-18 03:57N 40°38' W 074°07'3 5.9
2018-Jan-18 03:30N 40°39' W 074°04'3 6.1
2018-Jan-18 03:00N 40°40' W 074°00'0 0.5
2018-Jan-18 02:29N 40°40' W 074°00'0 0.0
2018-Jan-18 01:59N 40°40' W 074°00'0 0.0
2018-Jan-18 01:29N 40°40' W 074°00'0 0.0
2018-Jan-18 00:59N 40°40' W 074°00'0 0.0
2018-Jan-17 23:59N 40°40' W 074°00'0 0.0
2018-Jan-17 23:56N 40°40' W 074°00'  
2018-Jan-12 15:00N 40°40' W 074°01'1 1.4
2018-Jan-12 14:28N 40°40' W 074°00'0 0.0
2018-Jan-12 13:58N 40°40' W 074°00'0 0.0
2018-Jan-12 13:28N 40°40' W 074°00'3 6.4
2018-Jan-12 13:00N 40°39' W 074°04'4 7.6
2018-Jan-12 12:30N 40°39' W 074°09'1 1.1
2018-Jan-12 11:59N 40°40' W 074°09'1 1.3
2018-Jan-12 11:30N 40°39' W 074°09'2 3.4
2018-Jan-12 10:58N 40°39' W 074°07'0 0.0
2018-Jan-12 10:28N 40°39' W 074°07'0 0.0
2018-Jan-12 09:58N 40°39' W 074°07'0 0.0
2018-Jan-12 09:25N 40°39' W 074°07'0 0.1
2018-Jan-12 09:01N 40°39' W 074°07'1 1.2
2018-Jan-12 08:27N 40°39' W 074°07'0 0.0
2018-Jan-12 08:00N 40°39' W 074°07'0 0.0
2018-Jan-12 07:30N 40°39' W 074°07'0 0.0
2018-Jan-12 07:00N 40°39' W 074°07'0 0.0
2018-Jan-12 06:30N 40°39' W 074°07'0 0.0
2018-Jan-12 06:00N 40°39' W 074°07'0 0.0
2018-Jan-12 05:30N 40°39' W 074°07'0 0.0
2018-Jan-12 05:00N 40°39' W 074°07'1 3.0
2018-Jan-12 04:30N 40°39' W 074°05'2 4.1
2018-Jan-12 04:00N 40°40' W 074°03'1 1.6
2018-Jan-12 03:30N 40°40' W 074°04'1 1.9
2018-Jan-12 02:59N 40°39' W 074°05'1 1.5
2018-Jan-12 02:30N 40°39' W 074°04'3 6.6
2018-Jan-12 02:00N 40°41' W 074°01'1 1.2
2018-Jan-12 01:31N 40°41' W 074°00'3 6.5
2018-Jan-12 01:00N 40°40' W 074°04'1 1.9
2018-Jan-12 00:30N 40°40' W 074°03'0 0.1
2018-Jan-12 00:00N 40°40' W 074°03'3 5.5
2018-Jan-11 23:27N 40°39' W 074°07'0 0.0
2018-Jan-11 23:00N 40°39' W 074°07'0 0.1
2018-Jan-11 22:30N 40°39' W 074°06'2 4.1
2018-Jan-11 22:00N 40°39' W 074°04'1 1.5
2018-Jan-11 21:26N 40°39' W 074°03'1 3.3
2018-Jan-11 21:00N 40°40' W 074°01'1 1.5
2018-Jan-11 20:30N 40°40' W 074°00'0 0.0
2018-Jan-11 20:00N 40°40' W 074°00'2 4.1
2018-Jan-11 19:30N 40°39' W 074°03'2 3.4
2018-Jan-11 18:59N 40°39' W 074°05'2 3.7
2018-Jan-11 18:28N 40°40' W 074°03'0 0.0
2018-Jan-11 18:01N 40°40' W 074°03'2 4.1
2018-Jan-11 17:29N 40°40' W 074°00'0 0.0
2018-Jan-11 16:59N 40°40' W 074°00'1 2.9
2018-Jan-11 16:30N 40°41' W 074°00'1 1.8
2018-Jan-11 16:00N 40°41' W 074°01'1 2.9
2018-Jan-11 15:31N 40°40' W 074°03'2 3.5
2018-Jan-11 14:58N 40°40' W 074°00'0 0.0
2018-Jan-11 14:28N 40°40' W 074°00'0 0.5
2018-Jan-11 13:55N 40°40' W 074°00'0 0.0
2018-Jan-11 13:28N 40°40' W 074°00'0 0.0
2018-Jan-11 12:58N 40°40' W 074°00'0 0.0
2018-Jan-11 12:28N 40°40' W 074°00'0 0.0
2018-Jan-11 11:58N 40°40' W 074°00'0 0.0
2018-Jan-11 11:28N 40°40' W 074°00'0 0.0
2018-Jan-11 10:58N 40°40' W 074°00'0 0.0
2018-Jan-11 10:28N 40°40' W 074°00'0 0.0
2018-Jan-11 09:58N 40°40' W 074°00'0 0.0
2018-Jan-11 09:28N 40°40' W 074°00'0 0.0
2018-Jan-11 08:58N 40°40' W 074°00'0 0.0
2018-Jan-11 08:28N 40°40' W 074°00'0 0.0
2018-Jan-11 07:58N 40°40' W 074°00'0 0.0
2018-Jan-11 07:28N 40°40' W 074°00'0 0.0
2018-Jan-11 06:58N 40°40' W 074°00'0 0.0
2018-Jan-11 06:28N 40°40' W 074°00'1 2.5
2018-Jan-11 06:01N 40°41' W 074°01'1 1.6
2018-Jan-11 05:28N 40°41' W 074°00'0 0.7
2018-Jan-11 04:59N 40°42' W 074°00'0 0.3
2018-Jan-11 04:29N 40°42' W 074°00'0 0.8
2018-Jan-11 04:00N 40°41' W 074°00'1 1.7
2018-Jan-11 03:30N 40°41' W 074°01'2 3.7
2018-Jan-11 03:00N 40°43' W 074°01'610.9
2018-Jan-11 02:28N 40°48' W 073°59'  
Track history (hours):
 
Tides and Currents Weather Stations Pressure Air Temp Water Temp Dewpoint Dewpoint Depression Visibility Wind Speed Wind Dir Waves Ship Positions

Fort Mchenry

Last reported at 2018-Jan-21 02:06 UTC. Time now 2018-Jan-21 04:58 UTC.
Position N 40°58' W 073°54'.

Length 28 m; draft 4 m.

Type: Towing. MMSI: 369131000.

Date/timePositionNaut miles runAvg speedWind from/ knotsBaromVisibWave heightAir tempDewpointWater temp
2018-Jan-21 02:06N 40°58' W 073°54'1 7.0
2018-Jan-21 01:57N 40°57' W 073°54'3 6.8
2018-Jan-21 01:30N 40°54' W 073°55'3 6.6
2018-Jan-21 01:00N 40°51' W 073°57'3 6.3
2018-Jan-21 00:30N 40°48' W 073°59'3 5.7
2018-Jan-21 00:00N 40°45' W 074°01'3 5.6
2018-Jan-20 23:30N 40°43' W 074°01'3 5.3
2018-Jan-20 23:00N 40°40' W 074°03'3 5.1
2018-Jan-20 22:30N 40°39' W 074°06'3 4.9
2018-Jan-20 22:00N 40°39' W 074°09'3 6.7
2018-Jan-20 21:30N 40°42' W 074°07'0 0.5
2018-Jan-20 20:58N 40°42' W 074°07'2 4.6
2018-Jan-20 20:30N 40°40' W 074°08'2 3.7
2018-Jan-20 20:00N 40°39' W 074°08'1 2.5
2018-Jan-20 19:30N 40°39' W 074°06'2 4.9
2018-Jan-20 19:00N 40°40' W 074°03'1 1.2
2018-Jan-20 18:30N 40°40' W 074°03'4 8.8
2018-Jan-20 18:00N 40°39' W 074°08'3 6.9
2018-Jan-20 17:30N 40°37' W 074°12'4 7.1
2018-Jan-20 17:00N 40°33' W 074°13'2 2.7
2018-Jan-20 16:22N 40°32' W 074°15'4 7.6
2018-Jan-20 15:49N 40°36' W 074°12'3 8.7
2018-Jan-20 15:29N 40°39' W 074°11'4 9.3
2018-Jan-20 15:00N 40°39' W 074°05'4 8.8
2018-Jan-20 14:30N 40°41' W 074°00'1 2.9
2018-Jan-20 14:00N 40°40' W 074°01'0 0.3
2018-Jan-20 13:30N 40°40' W 074°00'0 0.0
2018-Jan-20 13:00N 40°40' W 074°00'0 0.0
2018-Jan-20 12:30N 40°40' W 074°00'0 0.0
2018-Jan-20 12:00N 40°40' W 074°00'0 0.0
2018-Jan-20 11:30N 40°40' W 074°00'0 0.9
2018-Jan-20 10:59N 40°40' W 074°01'0 0.1
2018-Jan-20 10:29N 40°40' W 074°01'0 0.0
2018-Jan-20 09:59N 40°40' W 074°01'1 1.4
2018-Jan-20 09:30N 40°39' W 074°02'4 7.3
2018-Jan-20 09:00N 40°39' W 074°06'2 3.5
2018-Jan-20 08:29N 40°40' W 074°09'1 1.9
2018-Jan-20 08:00N 40°41' W 074°08'2 3.4
2018-Jan-20 07:28N 40°42' W 074°07'0 0.6
2018-Jan-20 06:58N 40°42' W 074°07'1 1.6
2018-Jan-20 06:30N 40°42' W 074°07'1 1.6
2018-Jan-20 06:00N 40°42' W 074°08'0 0.0
2018-Jan-20 05:30N 40°42' W 074°08'0 0.0
2018-Jan-20 05:00N 40°42' W 074°08'0 0.0
2018-Jan-20 04:30N 40°42' W 074°08'0 0.0
2018-Jan-20 04:00N 40°42' W 074°08'2 3.5
2018-Jan-20 03:30N 40°40' W 074°08'2 3.0
2018-Jan-20 02:59N 40°39' W 074°07'0 0.5
2018-Jan-20 02:31N 40°39' W 074°06'0 0.8
2018-Jan-20 01:59N 40°39' W 074°07'2 3.1
2018-Jan-20 01:30N 40°39' W 074°05'4 6.7
2018-Jan-20 00:56N 40°40' W 074°00'1 2.1
2018-Jan-20 00:30N 40°40' W 074°01'1 2.0
2018-Jan-20 00:00N 40°41' W 074°01'3 6.8
2018-Jan-19 23:30N 40°40' W 074°05'0 0.6
2018-Jan-19 22:59N 40°40' W 074°05'0 0.7
2018-Jan-19 22:30N 40°40' W 074°05'3 3.8
2018-Jan-19 21:50N 40°38' W 074°07'0 0.0
2018-Jan-19 21:29N 40°38' W 074°07'0 0.0
2018-Jan-19 20:56N 40°38' W 074°07'0 0.0
2018-Jan-19 20:29N 40°38' W 074°07'1 2.4
2018-Jan-19 20:00N 40°39' W 074°09'3 5.9
2018-Jan-19 19:30N 40°37' W 074°12'1 1.1
2018-Jan-19 18:28N 40°36' W 074°12'2 5.3
2018-Jan-19 18:00N 40°38' W 074°11'3 6.2
2018-Jan-19 17:29N 40°41' W 074°08'2 3.2
2018-Jan-19 16:53N 40°42' W 074°07'1 1.7
2018-Jan-19 16:28N 40°42' W 074°07'2 4.3
2018-Jan-19 16:00N 40°40' W 074°08'3 5.7
2018-Jan-19 15:30N 40°39' W 074°05'3 7.0
2018-Jan-19 15:00N 40°40' W 074°00'1 2.4
2018-Jan-19 14:30N 40°39' W 074°02'3 6.1
2018-Jan-19 14:00N 40°39' W 074°06'3 5.8
2018-Jan-19 13:30N 40°39' W 074°09'3 5.6
2018-Jan-19 13:00N 40°37' W 074°12'3 6.2
2018-Jan-19 12:27N 40°33' W 074°13'2 0.8
2018-Jan-19 10:28N 40°33' W 074°15'4 6.3
2018-Jan-19 09:54N 40°35' W 074°12'3 7.7
2018-Jan-19 09:30N 40°38' W 074°12'4 7.6
2018-Jan-19 09:00N 40°39' W 074°07'0 0.1
2018-Jan-19 08:30N 40°39' W 074°06'2 4.3
2018-Jan-19 08:01N 40°39' W 074°04'1 2.9
2018-Jan-19 07:30N 40°40' W 074°03'0 0.0
2018-Jan-19 07:00N 40°40' W 074°03'1 2.6
2018-Jan-19 06:30N 40°40' W 074°04'2 3.2
2018-Jan-19 05:58N 40°39' W 074°06'1 1.7
2018-Jan-19 05:30N 40°39' W 074°07'0 0.0
2018-Jan-19 05:00N 40°39' W 074°07'0 0.0
2018-Jan-19 04:30N 40°39' W 074°07'0 0.0
2018-Jan-19 03:54N 40°39' W 074°07'0 0.0
2018-Jan-19 03:30N 40°39' W 074°07'1 1.6
2018-Jan-19 03:00N 40°39' W 074°06'0 0.4
2018-Jan-19 02:28N 40°39' W 074°06'1 1.4
2018-Jan-19 02:00N 40°39' W 074°07'2 4.5
2018-Jan-19 01:28N 40°41' W 074°09'0 0.0
2018-Jan-19 00:58N 40°41' W 074°09'2 3.9
2018-Jan-19 00:31N 40°39' W 074°09'1 2.7
2018-Jan-19 00:00N 40°39' W 074°07'0 0.7
2018-Jan-18 23:23N 40°39' W 074°07'0 0.0
2018-Jan-18 22:59N 40°39' W 074°07'0 0.0
2018-Jan-18 22:29N 40°39' W 074°07'0 0.0
2018-Jan-18 21:59N 40°39' W 074°07'1 1.5
2018-Jan-18 21:29N 40°39' W 074°06'3 5.9
2018-Jan-18 21:00N 40°39' W 074°03'2 4.6
2018-Jan-18 20:30N 40°40' W 074°00'0 0.0
2018-Jan-18 20:00N 40°40' W 074°00'0 0.0
2018-Jan-18 19:30N 40°40' W 074°00'0 0.0
2018-Jan-18 19:00N 40°40' W 074°00'1 1.4
2018-Jan-18 18:31N 40°40' W 074°01'5 9.1
2018-Jan-18 18:01N 40°39' W 074°07'4 7.9
2018-Jan-18 17:30N 40°38' W 074°12'4 7.3
2018-Jan-18 17:00N 40°34' W 074°13'2 3.2
2018-Jan-18 16:30N 40°33' W 074°14'2 3.0
2018-Jan-18 15:49N 40°35' W 074°12'0 0.5
2018-Jan-18 15:30N 40°35' W 074°13'4 7.1
2018-Jan-18 15:00N 40°39' W 074°11'4 8.7
2018-Jan-18 14:30N 40°39' W 074°06'1 1.3
2018-Jan-18 14:00N 40°39' W 074°07'1 1.1
2018-Jan-18 13:26N 40°39' W 074°07'1 1.4
2018-Jan-18 13:00N 40°39' W 074°07'4 7.9
2018-Jan-18 12:30N 40°39' W 074°02'1 1.8
2018-Jan-18 11:59N 40°40' W 074°00'0 0.0
2018-Jan-18 11:29N 40°40' W 074°00'0 0.0
2018-Jan-18 10:59N 40°40' W 074°00'0 0.0
2018-Jan-18 10:29N 40°40' W 074°00'0 0.0
2018-Jan-18 09:59N 40°40' W 074°00'0 0.0
2018-Jan-18 09:29N 40°40' W 074°00'0 0.0
2018-Jan-18 08:59N 40°40' W 074°00'0 0.0
2018-Jan-18 08:29N 40°40' W 074°00'0 0.0
2018-Jan-18 07:59N 40°40' W 074°00'0 1.0
2018-Jan-18 07:31N 40°40' W 074°01'2 4.7
2018-Jan-18 07:00N 40°40' W 074°04'1 1.4
2018-Jan-18 06:27N 40°40' W 074°05'0 0.0
2018-Jan-18 06:00N 40°40' W 074°05'1 2.3
2018-Jan-18 05:31N 40°39' W 074°04'1 2.2
2018-Jan-18 05:01N 40°39' W 074°06'1 1.6
2018-Jan-18 04:14N 40°38' W 074°07'0 0.0
2018-Jan-18 03:57N 40°38' W 074°07'3 5.9
2018-Jan-18 03:30N 40°39' W 074°04'3 6.1
2018-Jan-18 03:00N 40°40' W 074°00'0 0.5
2018-Jan-18 02:29N 40°40' W 074°00'0 0.0
2018-Jan-18 01:59N 40°40' W 074°00'0 0.0
2018-Jan-18 01:29N 40°40' W 074°00'0 0.0
2018-Jan-18 00:59N 40°40' W 074°00'0 0.0
2018-Jan-17 23:59N 40°40' W 074°00'0 0.0
2018-Jan-17 23:56N 40°40' W 074°00'  
2018-Jan-12 15:00N 40°40' W 074°01'1 1.4
2018-Jan-12 14:28N 40°40' W 074°00'0 0.0
2018-Jan-12 13:58N 40°40' W 074°00'0 0.0
2018-Jan-12 13:28N 40°40' W 074°00'3 6.4
2018-Jan-12 13:00N 40°39' W 074°04'4 7.6
2018-Jan-12 12:30N 40°39' W 074°09'1 1.1
2018-Jan-12 11:59N 40°40' W 074°09'1 1.3
2018-Jan-12 11:30N 40°39' W 074°09'2 3.4
2018-Jan-12 10:58N 40°39' W 074°07'0 0.0
2018-Jan-12 10:28N 40°39' W 074°07'0 0.0
2018-Jan-12 09:58N 40°39' W 074°07'0 0.0
2018-Jan-12 09:25N 40°39' W 074°07'0 0.1
2018-Jan-12 09:01N 40°39' W 074°07'1 1.2
2018-Jan-12 08:27N 40°39' W 074°07'0 0.0
2018-Jan-12 08:00N 40°39' W 074°07'0 0.0
2018-Jan-12 07:30N 40°39' W 074°07'0 0.0
2018-Jan-12 07:00N 40°39' W 074°07'0 0.0
2018-Jan-12 06:30N 40°39' W 074°07'0 0.0
2018-Jan-12 06:00N 40°39' W 074°07'0 0.0
2018-Jan-12 05:30N 40°39' W 074°07'0 0.0
2018-Jan-12 05:00N 40°39' W 074°07'1 3.0
2018-Jan-12 04:30N 40°39' W 074°05'2 4.1
2018-Jan-12 04:00N 40°40' W 074°03'1 1.6
2018-Jan-12 03:30N 40°40' W 074°04'1 1.9
2018-Jan-12 02:59N 40°39' W 074°05'1 1.5
2018-Jan-12 02:30N 40°39' W 074°04'3 6.6
2018-Jan-12 02:00N 40°41' W 074°01'1 1.2
2018-Jan-12 01:31N 40°41' W 074°00'3 6.5
2018-Jan-12 01:00N 40°40' W 074°04'1 1.9
2018-Jan-12 00:30N 40°40' W 074°03'0 0.1
2018-Jan-12 00:00N 40°40' W 074°03'3 5.5
2018-Jan-11 23:27N 40°39' W 074°07'0 0.0
2018-Jan-11 23:00N 40°39' W 074°07'0 0.1
2018-Jan-11 22:30N 40°39' W 074°06'2 4.1
2018-Jan-11 22:00N 40°39' W 074°04'1 1.5
2018-Jan-11 21:26N 40°39' W 074°03'1 3.3
2018-Jan-11 21:00N 40°40' W 074°01'1 1.5
2018-Jan-11 20:30N 40°40' W 074°00'0 0.0
2018-Jan-11 20:00N 40°40' W 074°00'2 4.1
2018-Jan-11 19:30N 40°39' W 074°03'2 3.4
2018-Jan-11 18:59N 40°39' W 074°05'2 3.7
2018-Jan-11 18:28N 40°40' W 074°03'0 0.0
2018-Jan-11 18:01N 40°40' W 074°03'2 4.1
2018-Jan-11 17:29N 40°40' W 074°00'0 0.0
2018-Jan-11 16:59N 40°40' W 074°00'1 2.9
2018-Jan-11 16:30N 40°41' W 074°00'1 1.8
2018-Jan-11 16:00N 40°41' W 074°01'1 2.9
2018-Jan-11 15:31N 40°40' W 074°03'2 3.5
2018-Jan-11 14:58N 40°40' W 074°00'0 0.0
2018-Jan-11 14:28N 40°40' W 074°00'0 0.5
2018-Jan-11 13:55N 40°40' W 074°00'0 0.0
2018-Jan-11 13:28N 40°40' W 074°00'0 0.0
2018-Jan-11 12:58N 40°40' W 074°00'0 0.0
2018-Jan-11 12:28N 40°40' W 074°00'0 0.0
2018-Jan-11 11:58N 40°40' W 074°00'0 0.0
2018-Jan-11 11:28N 40°40' W 074°00'0 0.0
2018-Jan-11 10:58N 40°40' W 074°00'0 0.0
2018-Jan-11 10:28N 40°40' W 074°00'0 0.0
2018-Jan-11 09:58N 40°40' W 074°00'0 0.0
2018-Jan-11 09:28N 40°40' W 074°00'0 0.0
2018-Jan-11 08:58N 40°40' W 074°00'0 0.0
2018-Jan-11 08:28N 40°40' W 074°00'0 0.0
2018-Jan-11 07:58N 40°40' W 074°00'0 0.0
2018-Jan-11 07:28N 40°40' W 074°00'0 0.0
2018-Jan-11 06:58N 40°40' W 074°00'0 0.0
2018-Jan-11 06:28N 40°40' W 074°00'1 2.5
2018-Jan-11 06:01N 40°41' W 074°01'1 1.6
2018-Jan-11 05:28N 40°41' W 074°00'0 0.7
2018-Jan-11 04:59N 40°42' W 074°00'0 0.3
2018-Jan-11 04:29N 40°42' W 074°00'0 0.8
2018-Jan-11 04:00N 40°41' W 074°00'1 1.7
2018-Jan-11 03:30N 40°41' W 074°01'2 3.7
2018-Jan-11 03:00N 40°43' W 074°01'610.9
2018-Jan-11 02:28N 40°48' W 073°59'  

Dump ship's entire track history